sensor_id;sensor_type;location;lat;lon;timestamp;pressure;altitude;pressure_sealevel;temperature;humidity
6435;BME280;3250;42.694;23.278;2023-03-21T00:00:25;94687.91;;;11.67;60.24
6435;BME280;3250;42.694;23.278;2023-03-21T00:02:51;94676.78;;;11.65;60.18
6435;BME280;3250;42.694;23.278;2023-03-21T00:05:16;94681.59;;;11.68;61.15
6435;BME280;3250;42.694;23.278;2023-03-21T00:07:42;94688.06;;;11.72;60.93
6435;BME280;3250;42.694;23.278;2023-03-21T00:10:08;94678.03;;;11.63;60.32
6435;BME280;3250;42.694;23.278;2023-03-21T00:12:33;94670.34;;;11.61;60.61
6435;BME280;3250;42.694;23.278;2023-03-21T00:15:06;94685.63;;;11.71;60.91
6435;BME280;3250;42.694;23.278;2023-03-21T00:17:32;94642.16;;;11.44;61.06
6435;BME280;3250;42.694;23.278;2023-03-21T00:19:59;94682.88;;;11.66;60.92
6435;BME280;3250;42.694;23.278;2023-03-21T00:22:25;94662.59;;;11.48;61.31
6435;BME280;3250;42.694;23.278;2023-03-21T00:24:52;94686.59;;;11.58;62.36
6435;BME280;3250;42.694;23.278;2023-03-21T00:27:17;94691.28;;;11.56;62.44
6435;BME280;3250;42.694;23.278;2023-03-21T00:29:46;94676.13;;;11.52;61.52
6435;BME280;3250;42.694;23.278;2023-03-21T00:32:16;94685.84;;;11.51;61.39
6435;BME280;3250;42.694;23.278;2023-03-21T00:34:42;94689.50;;;11.50;61.35
6435;BME280;3250;42.694;23.278;2023-03-21T00:37:09;94680.25;;;11.48;61.10
6435;BME280;3250;42.694;23.278;2023-03-21T00:39:36;94686.75;;;11.45;61.18
6435;BME280;3250;42.694;23.278;2023-03-21T00:42:02;94643.63;;;11.21;60.75
6435;BME280;3250;42.694;23.278;2023-03-21T00:44:28;94673.47;;;11.33;60.67
6435;BME280;3250;42.694;23.278;2023-03-21T00:46:53;94672.47;;;11.34;61.27
6435;BME280;3250;42.694;23.278;2023-03-21T00:49:18;94655.56;;;11.24;61.32
6435;BME280;3250;42.694;23.278;2023-03-21T00:51:47;94675.47;;;11.38;61.25
6435;BME280;3250;42.694;23.278;2023-03-21T00:54:16;94655.19;;;11.20;61.12
6435;BME280;3250;42.694;23.278;2023-03-21T00:56:41;94664.63;;;11.28;61.04
6435;BME280;3250;42.694;23.278;2023-03-21T00:59:07;94674.06;;;11.17;61.77
6435;BME280;3250;42.694;23.278;2023-03-21T01:01:32;94666.88;;;10.88;62.60
6435;BME280;3250;42.694;23.278;2023-03-21T01:04:00;94645.31;;;10.73;62.78
6435;BME280;3250;42.694;23.278;2023-03-21T01:06:37;94662.97;;;10.90;62.92
6435;BME280;3250;42.694;23.278;2023-03-21T01:09:05;94664.38;;;10.93;63.12
6435;BME280;3250;42.694;23.278;2023-03-21T01:11:32;94673.47;;;10.97;63.00
6435;BME280;3250;42.694;23.278;2023-03-21T01:13:58;94647.44;;;10.89;62.20
6435;BME280;3250;42.694;23.278;2023-03-21T01:16:24;94664.50;;;11.05;62.21
6435;BME280;3250;42.694;23.278;2023-03-21T01:18:50;94668.75;;;11.06;62.10
6435;BME280;3250;42.694;23.278;2023-03-21T01:21:15;94637.69;;;10.89;61.63
6435;BME280;3250;42.694;23.278;2023-03-21T01:23:42;94660.66;;;11.01;61.43
6435;BME280;3250;42.694;23.278;2023-03-21T01:26:09;94657.91;;;10.95;61.70
6435;BME280;3250;42.694;23.278;2023-03-21T01:28:36;94658.91;;;10.94;61.83
6435;BME280;3250;42.694;23.278;2023-03-21T01:31:04;94667.41;;;10.96;61.92
6435;BME280;3250;42.694;23.278;2023-03-21T01:33:30;94665.78;;;10.95;61.96
6435;BME280;3250;42.694;23.278;2023-03-21T01:35:57;94638.47;;;10.72;62.51
6435;BME280;3250;42.694;23.278;2023-03-21T01:38:23;94653.75;;;10.81;62.71
6435;BME280;3250;42.694;23.278;2023-03-21T01:40:49;94667.44;;;10.90;62.68
6435;BME280;3250;42.694;23.278;2023-03-21T01:43:23;94669.31;;;10.89;62.75
6435;BME280;3250;42.694;23.278;2023-03-21T01:48:30;94638.25;;;10.73;62.40
6435;BME280;3250;42.694;23.278;2023-03-21T01:50:57;94668.25;;;10.90;62.73
6435;BME280;3250;42.694;23.278;2023-03-21T01:53:26;94670.88;;;10.90;62.78
6435;BME280;3250;42.694;23.278;2023-03-21T01:56:00;94665.63;;;10.90;63.01
6435;BME280;3250;42.694;23.278;2023-03-21T01:58:28;94648.13;;;10.78;63.28
6435;BME280;3250;42.694;23.278;2023-03-21T02:00:54;94651.13;;;10.81;62.95
6435;BME280;3250;42.694;23.278;2023-03-21T02:03:21;94615.69;;;10.59;63.77
6435;BME280;3250;42.694;23.278;2023-03-21T02:06:01;94660.50;;;10.77;63.89
6435;BME280;3250;42.694;23.278;2023-03-21T02:08:31;94661.94;;;10.73;63.43
6435;BME280;3250;42.694;23.278;2023-03-21T02:10:57;94637.03;;;10.51;64.11
6435;BME280;3250;42.694;23.278;2023-03-21T02:13:23;94629.34;;;10.49;63.53
6435;BME280;3250;42.694;23.278;2023-03-21T02:16:00;94647.66;;;10.63;63.75
6435;BME280;3250;42.694;23.278;2023-03-21T02:18:58;94644.66;;;10.59;63.86
6435;BME280;3250;42.694;23.278;2023-03-21T02:21:37;94645.88;;;10.56;63.90
6435;BME280;3250;42.694;23.278;2023-03-21T02:32:22;94651.09;;;10.38;64.54
6435;BME280;3250;42.694;23.278;2023-03-21T02:37:46;94556.47;;;9.69;65.23
6435;BME280;3250;42.694;23.278;2023-03-21T02:40:32;94637.69;;;10.15;65.32
6435;BME280;3250;42.694;23.278;2023-03-21T02:43:21;94655.06;;;10.23;65.70
6435;BME280;3250;42.694;23.278;2023-03-21T02:45:52;94628.44;;;10.06;65.96
6435;BME280;3250;42.694;23.278;2023-03-21T02:48:22;94647.84;;;10.11;66.00
6435;BME280;3250;42.694;23.278;2023-03-21T02:50:51;94644.41;;;10.04;66.40
6435;BME280;3250;42.694;23.278;2023-03-21T02:53:24;94645.66;;;10.02;66.63
6435;BME280;3250;42.694;23.278;2023-03-21T02:55:51;94635.56;;;9.99;66.44
6435;BME280;3250;42.694;23.278;2023-03-21T02:58:19;94653.56;;;9.95;66.96
6435;BME280;3250;42.694;23.278;2023-03-21T03:00:46;94649.19;;;9.89;67.35
6435;BME280;3250;42.694;23.278;2023-03-21T03:03:13;94650.19;;;9.88;67.21
6435;BME280;3250;42.694;23.278;2023-03-21T03:05:45;94647.81;;;9.80;67.50
6435;BME280;3250;42.694;23.278;2023-03-21T03:16:33;94640.03;;;9.60;68.23
6435;BME280;3250;42.694;23.278;2023-03-21T03:19:07;94617.09;;;9.42;68.67
6435;BME280;3250;42.694;23.278;2023-03-21T03:21:50;94651.34;;;9.61;68.89
6435;BME280;3250;42.694;23.278;2023-03-21T03:24:25;94638.06;;;9.49;68.58
6435;BME280;3250;42.694;23.278;2023-03-21T03:26:58;94654.66;;;9.50;69.15
6435;BME280;3250;42.694;23.278;2023-03-21T03:29:27;94619.78;;;9.23;69.49
6435;BME280;3250;42.694;23.278;2023-03-21T03:31:59;94637.13;;;9.30;69.48
6435;BME280;3250;42.694;23.278;2023-03-21T03:34:31;94637.19;;;9.24;69.94
6435;BME280;3250;42.694;23.278;2023-03-21T03:37:01;94646.03;;;9.29;69.87
6435;BME280;3250;42.694;23.278;2023-03-21T03:39:37;94646.91;;;9.10;70.20
6435;BME280;3250;42.694;23.278;2023-03-21T03:42:06;94630.03;;;8.66;71.62
6435;BME280;3250;42.694;23.278;2023-03-21T03:44:34;94654.00;;;8.96;70.95
6435;BME280;3250;42.694;23.278;2023-03-21T03:47:04;94645.53;;;8.94;70.53
6435;BME280;3250;42.694;23.278;2023-03-21T03:49:59;94648.94;;;9.08;70.33
6435;BME280;3250;42.694;23.278;2023-03-21T03:52:26;94651.38;;;9.03;71.18
6435;BME280;3250;42.694;23.278;2023-03-21T03:54:54;94542.69;;;8.40;70.82
6435;BME280;3250;42.694;23.278;2023-03-21T03:57:20;94629.97;;;8.93;70.50
6435;BME280;3250;42.694;23.278;2023-03-21T03:59:46;94633.41;;;8.93;70.64
6435;BME280;3250;42.694;23.278;2023-03-21T04:02:12;94649.38;;;8.92;71.10
6435;BME280;3250;42.694;23.278;2023-03-21T04:04:38;94639.88;;;8.84;71.33
6435;BME280;3250;42.694;23.278;2023-03-21T04:07:03;94634.66;;;8.78;71.80
6435;BME280;3250;42.694;23.278;2023-03-21T04:09:30;94646.75;;;8.85;71.98
6435;BME280;3250;42.694;23.278;2023-03-21T04:11:56;94650.38;;;8.84;72.03
6435;BME280;3250;42.694;23.278;2023-03-21T04:14:22;94645.34;;;8.89;71.80
6435;BME280;3250;42.694;23.278;2023-03-21T04:16:48;94620.94;;;8.76;71.86
6435;BME280;3250;42.694;23.278;2023-03-21T04:19:14;94623.78;;;8.81;71.35
6435;BME280;3250;42.694;23.278;2023-03-21T04:21:40;94640.69;;;8.85;71.60
6435;BME280;3250;42.694;23.278;2023-03-21T04:24:06;94609.25;;;8.65;71.35
6435;BME280;3250;42.694;23.278;2023-03-21T04:26:33;94641.09;;;8.88;71.19
6435;BME280;3250;42.694;23.278;2023-03-21T04:29:00;94635.66;;;8.90;71.46
6435;BME280;3250;42.694;23.278;2023-03-21T04:31:28;94636.47;;;8.84;71.83
6435;BME280;3250;42.694;23.278;2023-03-21T04:33:56;94614.28;;;8.66;71.90
6435;BME280;3250;42.694;23.278;2023-03-21T04:36:22;94644.56;;;8.76;72.14
6435;BME280;3250;42.694;23.278;2023-03-21T04:39:04;94633.09;;;8.63;72.04
6435;BME280;3250;42.694;23.278;2023-03-21T04:41:30;94636.50;;;8.64;71.67
6435;BME280;3250;42.694;23.278;2023-03-21T04:43:56;94641.94;;;8.69;72.75
6435;BME280;3250;42.694;23.278;2023-03-21T04:46:22;94642.34;;;8.73;72.53
6435;BME280;3250;42.694;23.278;2023-03-21T04:48:48;94635.91;;;8.62;72.13
6435;BME280;3250;42.694;23.278;2023-03-21T04:51:14;94638.91;;;8.65;72.13
6435;BME280;3250;42.694;23.278;2023-03-21T04:53:40;94632.25;;;8.69;72.33
6435;BME280;3250;42.694;23.278;2023-03-21T04:56:09;94647.53;;;8.92;71.67
6435;BME280;3250;42.694;23.278;2023-03-21T04:58:35;94643.28;;;9.04;71.54
6435;BME280;3250;42.694;23.278;2023-03-21T05:01:00;94627.13;;;9.01;71.31
6435;BME280;3250;42.694;23.278;2023-03-21T05:03:30;94655.16;;;9.20;70.22
6435;BME280;3250;42.694;23.278;2023-03-21T05:05:59;94656.00;;;9.14;70.33
6435;BME280;3250;42.694;23.278;2023-03-21T05:08:24;94659.78;;;9.18;70.75
6435;BME280;3250;42.694;23.278;2023-03-21T05:10:50;94663.84;;;9.21;70.78
6435;BME280;3250;42.694;23.278;2023-03-21T05:13:15;94626.31;;;9.07;70.27
6435;BME280;3250;42.694;23.278;2023-03-21T05:15:41;94662.00;;;9.28;70.36
6435;BME280;3250;42.694;23.278;2023-03-21T05:18:06;94657.16;;;9.31;70.37
6435;BME280;3250;42.694;23.278;2023-03-21T05:20:38;94657.50;;;9.35;70.28
6435;BME280;3250;42.694;23.278;2023-03-21T05:23:08;94657.31;;;9.36;70.93
6435;BME280;3250;42.694;23.278;2023-03-21T05:25:36;94651.50;;;9.28;70.60
6435;BME280;3250;42.694;23.278;2023-03-21T05:28:03;94652.47;;;9.40;70.20
6435;BME280;3250;42.694;23.278;2023-03-21T05:30:28;94668.56;;;9.57;69.79
6435;BME280;3250;42.694;23.278;2023-03-21T05:32:54;94656.00;;;9.65;69.94
6435;BME280;3250;42.694;23.278;2023-03-21T05:35:19;94661.41;;;9.77;69.43
6435;BME280;3250;42.694;23.278;2023-03-21T05:37:45;94661.31;;;9.90;68.77
6435;BME280;3250;42.694;23.278;2023-03-21T05:40:10;94643.31;;;9.87;69.08
6435;BME280;3250;42.694;23.278;2023-03-21T05:42:36;94674.72;;;10.13;69.37
6435;BME280;3250;42.694;23.278;2023-03-21T05:45:02;94674.88;;;10.25;69.19
6435;BME280;3250;42.694;23.278;2023-03-21T05:47:28;94642.50;;;10.25;68.85
6435;BME280;3250;42.694;23.278;2023-03-21T05:49:53;94652.28;;;10.42;69.03
6435;BME280;3250;42.694;23.278;2023-03-21T05:52:19;94620.13;;;10.40;67.71
6435;BME280;3250;42.694;23.278;2023-03-21T05:54:44;94635.31;;;10.63;67.89
6435;BME280;3250;42.694;23.278;2023-03-21T05:57:10;94642.38;;;10.87;67.76
6435;BME280;3250;42.694;23.278;2023-03-21T05:59:35;94620.72;;;10.85;67.91
6435;BME280;3250;42.694;23.278;2023-03-21T06:02:01;94629.38;;;11.11;65.59
6435;BME280;3250;42.694;23.278;2023-03-21T06:04:26;94621.53;;;11.22;64.70
6435;BME280;3250;42.694;23.278;2023-03-21T06:06:52;94641.19;;;11.56;65.38
6435;BME280;3250;42.694;23.278;2023-03-21T06:09:20;94642.50;;;11.84;64.75
6435;BME280;3250;42.694;23.278;2023-03-21T06:11:48;94641.34;;;12.21;63.35
6435;BME280;3250;42.694;23.278;2023-03-21T06:14:14;94642.69;;;12.54;63.21
6435;BME280;3250;42.694;23.278;2023-03-21T06:16:40;94638.00;;;12.79;62.59
6435;BME280;3250;42.694;23.278;2023-03-21T06:19:06;94622.03;;;12.85;62.12
6435;BME280;3250;42.694;23.278;2023-03-21T06:21:31;94614.91;;;12.86;61.38
6435;BME280;3250;42.694;23.278;2023-03-21T06:23:57;94639.81;;;13.02;60.11
6435;BME280;3250;42.694;23.278;2023-03-21T06:26:22;94624.53;;;12.92;60.49
6435;BME280;3250;42.694;23.278;2023-03-21T06:28:49;94613.41;;;12.90;60.03
6435;BME280;3250;42.694;23.278;2023-03-21T06:31:14;94634.53;;;13.02;58.53
6435;BME280;3250;42.694;23.278;2023-03-21T06:33:40;94622.25;;;12.96;58.99
6435;BME280;3250;42.694;23.278;2023-03-21T06:36:06;94639.13;;;13.06;59.64
6435;BME280;3250;42.694;23.278;2023-03-21T06:38:31;94615.38;;;12.95;60.37
6435;BME280;3250;42.694;23.278;2023-03-21T06:40:57;94620.97;;;12.98;59.22
6435;BME280;3250;42.694;23.278;2023-03-21T06:43:22;94647.53;;;13.15;59.10
6435;BME280;3250;42.694;23.278;2023-03-21T06:45:48;94623.63;;;13.10;57.82
6435;BME280;3250;42.694;23.278;2023-03-21T06:48:13;94647.88;;;13.30;58.36
6435;BME280;3250;42.694;23.278;2023-03-21T06:50:39;94635.78;;;13.34;59.56
6435;BME280;3250;42.694;23.278;2023-03-21T06:53:05;94648.28;;;13.50;58.29
6435;BME280;3250;42.694;23.278;2023-03-21T06:55:30;94658.59;;;13.64;56.00
6435;BME280;3250;42.694;23.278;2023-03-21T06:57:56;94642.97;;;13.62;54.95
6435;BME280;3250;42.694;23.278;2023-03-21T07:00:22;94656.03;;;13.80;53.84
6435;BME280;3250;42.694;23.278;2023-03-21T07:02:47;94663.66;;;13.93;53.62
6435;BME280;3250;42.694;23.278;2023-03-21T07:05:14;94639.63;;;13.95;53.53
6435;BME280;3250;42.694;23.278;2023-03-21T07:07:39;94609.25;;;13.97;54.38
6435;BME280;3250;42.694;23.278;2023-03-21T07:10:06;94652.34;;;14.55;53.26
6435;BME280;3250;42.694;23.278;2023-03-21T07:12:32;94652.03;;;14.85;53.25
6435;BME280;3250;42.694;23.278;2023-03-21T07:15:03;94659.56;;;15.09;51.43
6435;BME280;3250;42.694;23.278;2023-03-21T07:17:29;94662.75;;;15.28;49.92
6435;BME280;3250;42.694;23.278;2023-03-21T07:19:55;94667.63;;;15.36;49.81
6435;BME280;3250;42.694;23.278;2023-03-21T07:22:20;94665.41;;;15.28;47.86
6435;BME280;3250;42.694;23.278;2023-03-21T07:24:45;94657.84;;;15.20;49.90
6435;BME280;3250;42.694;23.278;2023-03-21T07:27:15;94660.13;;;15.12;48.87
6435;BME280;3250;42.694;23.278;2023-03-21T07:29:41;94648.97;;;15.09;50.92
6435;BME280;3250;42.694;23.278;2023-03-21T07:32:09;94648.97;;;15.09;48.99
6435;BME280;3250;42.694;23.278;2023-03-21T07:34:34;94651.94;;;14.96;48.79
6435;BME280;3250;42.694;23.278;2023-03-21T07:37:00;94642.88;;;14.76;49.12
6435;BME280;3250;42.694;23.278;2023-03-21T07:39:26;94656.44;;;14.79;49.97
6435;BME280;3250;42.694;23.278;2023-03-21T07:41:51;94659.66;;;14.81;50.28
6435;BME280;3250;42.694;23.278;2023-03-21T07:44:20;94648.47;;;14.79;50.47
6435;BME280;3250;42.694;23.278;2023-03-21T07:46:46;94652.09;;;14.90;48.89
6435;BME280;3250;42.694;23.278;2023-03-21T07:49:11;94665.25;;;15.18;49.99
6435;BME280;3250;42.694;23.278;2023-03-21T07:51:36;94662.22;;;15.31;50.04
6435;BME280;3250;42.694;23.278;2023-03-21T07:54:02;94667.25;;;15.49;49.35
6435;BME280;3250;42.694;23.278;2023-03-21T07:56:28;94650.66;;;15.54;48.04
6435;BME280;3250;42.694;23.278;2023-03-21T07:58:53;94665.47;;;15.72;47.72
6435;BME280;3250;42.694;23.278;2023-03-21T08:01:19;94662.63;;;15.78;47.93
6435;BME280;3250;42.694;23.278;2023-03-21T08:03:46;94655.22;;;15.80;47.53
6435;BME280;3250;42.694;23.278;2023-03-21T08:06:12;94664.03;;;15.86;48.39
6435;BME280;3250;42.694;23.278;2023-03-21T08:08:37;94662.97;;;15.87;47.19
6435;BME280;3250;42.694;23.278;2023-03-21T08:11:04;94664.41;;;15.95;47.38
6435;BME280;3250;42.694;23.278;2023-03-21T08:13:29;94654.38;;;16.02;47.50
6435;BME280;3250;42.694;23.278;2023-03-21T08:15:55;94662.78;;;16.15;46.19
6435;BME280;3250;42.694;23.278;2023-03-21T08:18:21;94653.47;;;16.18;46.21
6435;BME280;3250;42.694;23.278;2023-03-21T08:20:51;94630.34;;;16.13;46.17
6435;BME280;3250;42.694;23.278;2023-03-21T08:23:16;94638.41;;;16.23;46.30
6435;BME280;3250;42.694;23.278;2023-03-21T08:25:42;94660.84;;;16.38;45.67
6435;BME280;3250;42.694;23.278;2023-03-21T08:28:07;94635.00;;;16.28;47.39
6435;BME280;3250;42.694;23.278;2023-03-21T08:30:32;94632.13;;;16.35;46.12
6435;BME280;3250;42.694;23.278;2023-03-21T08:32:59;94641.56;;;16.47;44.64
6435;BME280;3250;42.694;23.278;2023-03-21T08:35:25;94640.75;;;16.47;47.25
6435;BME280;3250;42.694;23.278;2023-03-21T08:37:51;94643.09;;;16.43;45.92
6435;BME280;3250;42.694;23.278;2023-03-21T08:40:17;94652.19;;;16.47;46.11
6435;BME280;3250;42.694;23.278;2023-03-21T08:42:44;94650.63;;;16.51;46.70
6435;BME280;3250;42.694;23.278;2023-03-21T08:45:12;94638.25;;;16.35;46.53
6435;BME280;3250;42.694;23.278;2023-03-21T08:47:37;94632.09;;;16.30;46.61
6435;BME280;3250;42.694;23.278;2023-03-21T08:50:05;94651.28;;;16.37;46.03
6435;BME280;3250;42.694;23.278;2023-03-21T08:52:33;94644.91;;;16.38;47.29
6435;BME280;3250;42.694;23.278;2023-03-21T08:54:58;94627.00;;;16.23;47.61
6435;BME280;3250;42.694;23.278;2023-03-21T08:57:24;94645.94;;;16.32;48.10
6435;BME280;3250;42.694;23.278;2023-03-21T08:59:49;94630.72;;;16.27;46.43
6435;BME280;3250;42.694;23.278;2023-03-21T09:02:16;94649.16;;;16.34;47.40
6435;BME280;3250;42.694;23.278;2023-03-21T09:04:42;94630.44;;;16.23;46.87
6435;BME280;3250;42.694;23.278;2023-03-21T09:07:09;94635.59;;;16.35;46.94
6435;BME280;3250;42.694;23.278;2023-03-21T09:09:37;94617.97;;;16.24;45.79
6435;BME280;3250;42.694;23.278;2023-03-21T09:12:02;94627.28;;;16.27;46.29
6435;BME280;3250;42.694;23.278;2023-03-21T09:14:28;94632.56;;;16.21;44.70
6435;BME280;3250;42.694;23.278;2023-03-21T09:16:53;94627.13;;;16.11;45.00
6435;BME280;3250;42.694;23.278;2023-03-21T09:19:19;94624.88;;;15.98;46.86
6435;BME280;3250;42.694;23.278;2023-03-21T09:21:44;94616.72;;;16.05;47.58
6435;BME280;3250;42.694;23.278;2023-03-21T09:24:12;94597.53;;;15.98;47.75
6435;BME280;3250;42.694;23.278;2023-03-21T09:26:38;94608.78;;;16.10;47.11
6435;BME280;3250;42.694;23.278;2023-03-21T09:29:03;94605.50;;;16.25;48.37
6435;BME280;3250;42.694;23.278;2023-03-21T09:31:30;94595.38;;;16.21;46.79
6435;BME280;3250;42.694;23.278;2023-03-21T09:33:56;94592.75;;;16.27;47.07
6435;BME280;3250;42.694;23.278;2023-03-21T09:36:23;94598.69;;;16.39;45.04
6435;BME280;3250;42.694;23.278;2023-03-21T09:38:50;94608.78;;;16.37;45.40
6435;BME280;3250;42.694;23.278;2023-03-21T09:49:34;94573.91;;;16.28;45.59
6435;BME280;3250;42.694;23.278;2023-03-21T09:52:10;94577.34;;;16.29;45.62
6435;BME280;3250;42.694;23.278;2023-03-21T09:54:40;94586.44;;;16.33;46.47
6435;BME280;3250;42.694;23.278;2023-03-21T09:59:53;94586.28;;;16.17;44.39
6435;BME280;3250;42.694;23.278;2023-03-21T10:02:39;94576.00;;;16.26;45.43
6435;BME280;3250;42.694;23.278;2023-03-21T10:05:24;94574.69;;;16.29;44.99
6435;BME280;3250;42.694;23.278;2023-03-21T10:07:57;94566.78;;;16.34;44.27
6435;BME280;3250;42.694;23.278;2023-03-21T10:10:27;94544.69;;;16.28;45.25
6435;BME280;3250;42.694;23.278;2023-03-21T10:12:55;94553.06;;;16.47;42.94
6435;BME280;3250;42.694;23.278;2023-03-21T10:15:23;94574.22;;;16.64;43.72
6435;BME280;3250;42.694;23.278;2023-03-21T10:18:01;94569.03;;;16.84;43.43
6435;BME280;3250;42.694;23.278;2023-03-21T10:20:36;94557.19;;;17.07;42.79
6435;BME280;3250;42.694;23.278;2023-03-21T10:23:09;94559.16;;;17.26;42.64
6435;BME280;3250;42.694;23.278;2023-03-21T10:25:43;94563.25;;;17.49;42.79
6435;BME280;3250;42.694;23.278;2023-03-21T10:28:20;94559.63;;;17.76;44.03
6435;BME280;3250;42.694;23.278;2023-03-21T10:30:54;94562.88;;;18.03;42.92
6435;BME280;3250;42.694;23.278;2023-03-21T10:33:26;94556.53;;;18.24;41.52
6435;BME280;3250;42.694;23.278;2023-03-21T10:35:59;94536.28;;;18.33;41.80
6435;BME280;3250;42.694;23.278;2023-03-21T10:38:26;94552.25;;;18.43;41.30
6435;BME280;3250;42.694;23.278;2023-03-21T10:40:52;94556.25;;;18.51;41.35
6435;BME280;3250;42.694;23.278;2023-03-21T10:45:54;94556.78;;;18.43;39.27
6435;BME280;3250;42.694;23.278;2023-03-21T10:48:20;94535.22;;;18.29;38.70
6435;BME280;3250;42.694;23.278;2023-03-21T10:50:49;94562.13;;;18.43;38.36
6435;BME280;3250;42.694;23.278;2023-03-21T10:53:28;94558.94;;;18.41;37.61
6435;BME280;3250;42.694;23.278;2023-03-21T10:55:57;94535.19;;;18.19;37.76
6435;BME280;3250;42.694;23.278;2023-03-21T10:58:28;94528.00;;;18.20;37.32
6435;BME280;3250;42.694;23.278;2023-03-21T11:01:00;94546.16;;;18.33;38.82
6435;BME280;3250;42.694;23.278;2023-03-21T11:03:32;94542.66;;;18.37;38.02
6435;BME280;3250;42.694;23.278;2023-03-21T11:08:49;94536.25;;;18.43;37.38
6435;BME280;3250;42.694;23.278;2023-03-21T11:11:27;94528.00;;;18.40;35.81
6435;BME280;3250;42.694;23.278;2023-03-21T11:13:59;94506.44;;;18.21;37.65
6435;BME280;3250;42.694;23.278;2023-03-21T11:16:41;94513.88;;;18.34;38.72
6435;BME280;3250;42.694;23.278;2023-03-21T11:21:42;94511.22;;;18.39;35.43
6435;BME280;3250;42.694;23.278;2023-03-21T11:24:16;94513.34;;;18.27;35.87
6435;BME280;3250;42.694;23.278;2023-03-21T11:26:47;94506.97;;;18.33;38.60
6435;BME280;3250;42.694;23.278;2023-03-21T11:29:19;94506.94;;;18.48;39.14
6435;BME280;3250;42.694;23.278;2023-03-21T11:31:46;94509.63;;;18.59;37.43
6435;BME280;3250;42.694;23.278;2023-03-21T11:34:27;94496.28;;;18.64;37.62
6435;BME280;3250;42.694;23.278;2023-03-21T11:36:57;94491.22;;;18.62;35.58
6435;BME280;3250;42.694;23.278;2023-03-21T11:39:33;94476.00;;;18.42;36.60
6435;BME280;3250;42.694;23.278;2023-03-21T11:41:58;94472.56;;;18.37;36.42
6435;BME280;3250;42.694;23.278;2023-03-21T11:44:33;94473.09;;;18.29;37.75
6435;BME280;3250;42.694;23.278;2023-03-21T11:47:00;94481.91;;;18.39;37.12
6435;BME280;3250;42.694;23.278;2023-03-21T11:49:27;94465.13;;;18.29;37.67
6435;BME280;3250;42.694;23.278;2023-03-21T11:51:56;94492.53;;;18.44;37.95
6435;BME280;3250;42.694;23.278;2023-03-21T11:55:22;94478.19;;;18.30;36.86
6435;BME280;3250;42.694;23.278;2023-03-21T12:00:33;94464.59;;;18.01;37.53
6435;BME280;3250;42.694;23.278;2023-03-21T12:05:59;94464.59;;;18.06;36.52
6435;BME280;3250;42.694;23.278;2023-03-21T12:08:45;94458.47;;;18.06;36.69
6435;BME280;3250;42.694;23.278;2023-03-21T12:16:30;94454.47;;;17.88;35.78
6435;BME280;3250;42.694;23.278;2023-03-21T12:24:49;94435.56;;;17.80;36.48
6435;BME280;3250;42.694;23.278;2023-03-21T12:33:00;94437.94;;;17.91;34.94
6435;BME280;3250;42.694;23.278;2023-03-21T12:35:56;94436.34;;;17.90;34.66
6435;BME280;3250;42.694;23.278;2023-03-21T12:38:40;94434.47;;;17.91;35.00
6435;BME280;3250;42.694;23.278;2023-03-21T12:48:44;94437.44;;;18.04;35.90
6435;BME280;3250;42.694;23.278;2023-03-21T12:51:15;94437.44;;;18.04;35.01
6435;BME280;3250;42.694;23.278;2023-03-21T12:56:42;94399.34;;;17.84;35.80
6435;BME280;3250;42.694;23.278;2023-03-21T12:59:37;94401.75;;;17.85;36.50
6435;BME280;3250;42.694;23.278;2023-03-21T13:02:21;94410.50;;;18.01;35.93
6435;BME280;3250;42.694;23.278;2023-03-21T13:05:03;94411.59;;;18.05;36.22
6435;BME280;3250;42.694;23.278;2023-03-21T13:07:36;94383.63;;;17.92;36.16
6435;BME280;3250;42.694;23.278;2023-03-21T13:10:11;94405.47;;;18.04;36.00
6435;BME280;3250;42.694;23.278;2023-03-21T13:12:50;94405.19;;;18.11;35.63
6435;BME280;3250;42.694;23.278;2023-03-21T13:16:24;94395.34;;;17.86;35.91
6435;BME280;3250;42.694;23.278;2023-03-21T13:23:38;94391.88;;;17.55;37.29
6435;BME280;3250;42.694;23.278;2023-03-21T13:26:09;94394.28;;;17.62;36.86
6435;BME280;3250;42.694;23.278;2023-03-21T13:28:38;94388.69;;;17.63;36.54
6435;BME280;3250;42.694;23.278;2023-03-21T13:31:25;94393.72;;;17.65;36.66
6435;BME280;3250;42.694;23.278;2023-03-21T13:33:53;94372.44;;;17.55;36.52
6435;BME280;3250;42.694;23.278;2023-03-21T13:36:28;94387.91;;;17.68;36.47
6435;BME280;3250;42.694;23.278;2023-03-21T13:39:02;94384.94;;;17.64;36.43
6435;BME280;3250;42.694;23.278;2023-03-21T13:41:33;94379.13;;;17.62;36.34
6435;BME280;3250;42.694;23.278;2023-03-21T13:51:51;94363.88;;;17.48;38.02
6435;BME280;3250;42.694;23.278;2023-03-21T13:54:20;94366.56;;;17.58;38.36
6435;BME280;3250;42.694;23.278;2023-03-21T13:56:56;94350.31;;;17.59;38.79
6435;BME280;3250;42.694;23.278;2023-03-21T14:04:45;94363.66;;;17.85;37.94
6435;BME280;3250;42.694;23.278;2023-03-21T14:07:11;94367.13;;;17.80;37.98
6435;BME280;3250;42.694;23.278;2023-03-21T14:09:40;94368.97;;;17.75;38.06
6435;BME280;3250;42.694;23.278;2023-03-21T14:12:12;94366.31;;;17.75;38.07
6435;BME280;3250;42.694;23.278;2023-03-21T14:14:48;94354.03;;;17.58;38.72
6435;BME280;3250;42.694;23.278;2023-03-21T14:17:33;94367.09;;;17.60;38.86
6435;BME280;3250;42.694;23.278;2023-03-21T14:20:00;94365.25;;;17.55;39.19
6435;BME280;3250;42.694;23.278;2023-03-21T14:22:30;94362.59;;;17.55;38.82
6435;BME280;3250;42.694;23.278;2023-03-21T14:25:00;94363.63;;;17.49;39.25
6435;BME280;3250;42.694;23.278;2023-03-21T14:27:33;94341.25;;;17.40;39.52
6435;BME280;3250;42.694;23.278;2023-03-21T14:30:00;94333.81;;;17.27;39.91
6435;BME280;3250;42.694;23.278;2023-03-21T14:32:29;94356.72;;;17.38;39.85
6435;BME280;3250;42.694;23.278;2023-03-21T14:34:55;94334.88;;;17.16;40.02
6435;BME280;3250;42.694;23.278;2023-03-21T14:37:42;94351.38;;;17.18;40.56
6435;BME280;3250;42.694;23.278;2023-03-21T14:40:21;94350.84;;;17.21;40.26
6435;BME280;3250;42.694;23.278;2023-03-21T14:42:49;94356.69;;;17.33;40.34
6435;BME280;3250;42.694;23.278;2023-03-21T14:45:22;94365.72;;;17.17;40.79
6435;BME280;3250;42.694;23.278;2023-03-21T14:50:49;94349.72;;;16.91;42.53
6435;BME280;3250;42.694;23.278;2023-03-21T14:53:25;94362.44;;;16.74;44.26
6435;BME280;3250;42.694;23.278;2023-03-21T14:56:16;94369.59;;;16.74;44.72
6435;BME280;3250;42.694;23.278;2023-03-21T14:58:44;94377.28;;;16.65;43.54